Time;durP1;ratioP1;P1;durP2;ratioP2;P2;SDS_P1;SDS_P2;PMS_P1;PMS_P2;Temp;Humidity;BMP_temperature;BMP_pressure;BME280_temperature;BME280_humidity;BME280_pressure;Samples;Min_cycle;Max_cycle;Signal;HPM_P1;HPM_P2
2022/03/01 00:01:41;;;;;;;7.67;3.90;;;3.90;99.90;;;;;;5051572;28;20453;-75
2022/03/01 00:04:08;;;;;;;7.73;4.53;;;3.90;99.90;;;;;;5051521;28;20457;-74
2022/03/01 00:06:35;;;;;;;6.23;3.40;;;3.80;99.90;;;;;;5051403;28;20481;-73
2022/03/01 00:09:03;;;;;;;6.77;4.17;;;3.80;99.90;;;;;;5051069;28;20946;-73
2022/03/01 00:11:31;;;;;;;6.53;4.07;;;3.80;99.90;;;;;;5051197;28;20461;-74
2022/03/01 00:13:58;;;;;;;6.43;4.23;;;3.70;99.90;;;;;;5051226;28;20461;-73
2022/03/01 00:16:26;;;;;;;7.20;4.03;;;3.70;99.90;;;;;;5051219;28;20481;-73
2022/03/01 00:18:54;;;;;;;7.03;4.30;;;3.70;99.90;;;;;;5051123;28;20493;-73
2022/03/01 00:21:21;;;;;;;6.77;4.00;;;3.70;99.90;;;;;;5050780;28;20895;-73
2022/03/01 00:23:48;;;;;;;7.33;5.10;;;3.70;99.90;;;;;;5050719;28;20540;-74
2022/03/01 00:26:15;;;;;;;11.30;4.77;;;3.70;99.90;;;;;;5050768;28;20466;-74
2022/03/01 00:28:43;;;;;;;8.27;4.67;;;3.60;99.90;;;;;;5050897;28;20815;-74
2022/03/01 00:31:10;;;;;;;6.60;4.60;;;3.70;99.90;;;;;;5050874;28;21171;-74
2022/03/01 00:33:38;;;;;;;8.00;4.63;;;3.70;99.90;;;;;;5051063;28;20454;-73
2022/03/01 00:36:06;;;;;;;6.70;4.43;;;3.80;99.90;;;;;;5050729;28;20469;-74
2022/03/01 00:38:33;;;;;;;8.00;4.77;;;3.90;99.90;;;;;;5050473;28;20497;-74
2022/03/01 00:41:00;;;;;;;6.90;5.10;;;3.80;99.90;;;;;;5049580;28;20473;-74
2022/03/01 00:43:28;;;;;;;6.43;4.07;;;3.70;99.90;;;;;;5050626;28;20476;-73
2022/03/01 00:45:55;;;;;;;7.70;4.77;;;3.60;99.90;;;;;;5050580;28;20470;-73
2022/03/01 00:48:22;;;;;;;6.47;4.40;;;3.70;99.90;;;;;;5050183;28;20962;-73
2022/03/01 00:50:51;;;;;;;7.40;4.30;;;3.70;99.90;;;;;;5050239;28;20457;-73
2022/03/01 00:53:18;;;;;;;7.47;4.67;;;3.70;99.90;;;;;;5050440;28;20946;-74
2022/03/01 00:55:45;;;;;;;6.30;4.20;;;3.70;99.90;;;;;;5049972;28;20481;-73
2022/03/01 00:58:12;;;;;;;7.80;4.47;;;3.70;99.90;;;;;;5050321;28;20576;-73
2022/03/01 01:00:40;;;;;;;6.90;4.30;;;3.70;99.90;;;;;;5050497;28;20442;-73
2022/03/01 01:03:07;;;;;;;7.07;3.93;;;3.80;99.90;;;;;;5050000;28;20465;-73
2022/03/01 01:05:34;;;;;;;7.60;5.17;;;3.80;99.90;;;;;;5050056;28;20473;-74
2022/03/01 01:08:03;;;;;;;7.77;4.70;;;3.60;99.90;;;;;;5050250;28;20814;-73
2022/03/01 01:10:30;;;;;;;5.93;3.87;;;3.40;99.90;;;;;;5050322;28;20969;-73
2022/03/01 01:12:57;;;;;;;6.93;3.93;;;3.20;99.90;;;;;;5050246;28;20564;-73
2022/03/01 01:15:24;;;;;;;9.50;4.50;;;3.10;99.90;;;;;;5049622;28;20530;-74
2022/03/01 01:17:52;;;;;;;6.93;4.30;;;3.00;99.90;;;;;;5049999;28;20457;-74
2022/03/01 01:20:19;;;;;;;7.13;4.30;;;3.10;99.90;;;;;;5049868;28;20490;-74
2022/03/01 01:22:46;;;;;;;7.37;5.00;;;3.00;99.90;;;;;;5050151;28;20454;-73
2022/03/01 01:25:17;;;;;;;6.50;4.87;;;3.00;99.90;;;;;;5049968;28;20477;-73
2022/03/01 01:27:46;;;;;;;7.80;4.57;;;3.10;99.90;;;;;;5050012;28;20453;-73
2022/03/01 01:30:16;;;;;;;8.53;5.07;;;3.10;99.90;;;;;;5049541;28;20532;-73
2022/03/01 01:32:43;;;;;;;6.83;4.30;;;3.00;99.90;;;;;;5049487;28;20489;-73
2022/03/01 01:35:12;;;;;;;7.47;4.50;;;3.00;99.90;;;;;;5049369;28;21089;-73
2022/03/01 01:37:40;;;;;;;6.53;4.60;;;3.00;99.90;;;;;;5049805;28;20609;-73
2022/03/01 01:40:09;;;;;;;8.07;4.70;;;2.90;99.90;;;;;;5049734;28;20494;-73
2022/03/01 01:42:38;;;;;;;5.90;3.57;;;2.90;99.90;;;;;;5049398;28;20939;-74
2022/03/01 01:45:07;;;;;;;7.47;4.83;;;2.80;99.90;;;;;;5049497;28;20470;-74
2022/03/01 01:47:35;;;;;;;6.23;3.57;;;2.80;99.90;;;;;;5049520;28;20449;-73
2022/03/01 01:50:03;;;;;;;6.23;4.40;;;2.90;99.90;;;;;;5049684;28;20950;-73
2022/03/01 01:52:30;;;;;;;9.37;6.13;;;2.60;99.90;;;;;;5049464;28;20454;-73
2022/03/01 01:54:57;;;;;;;18.87;10.97;;;2.60;99.90;;;;;;5049563;28;20474;-73
2022/03/01 01:57:26;;;;;;;10.30;6.40;;;2.70;99.90;;;;;;5049213;28;20461;-73
2022/03/01 02:00:00;;;;;;;8.93;4.67;;;2.70;99.90;;;;;;5049322;28;20516;-72
2022/03/01 02:02:27;;;;;;;8.90;5.93;;;2.60;99.90;;;;;;5048493;28;20507;-73
2022/03/01 02:04:54;;;;;;;11.80;4.80;;;2.60;99.90;;;;;;5049552;28;20469;-74
2022/03/01 02:07:22;;;;;;;7.50;4.30;;;2.50;99.90;;;;;;5049612;28;20468;-74
2022/03/01 02:09:49;;;;;;;6.60;4.00;;;2.40;99.90;;;;;;5049260;28;20452;-74
2022/03/01 02:12:16;;;;;;;8.30;5.07;;;2.30;99.90;;;;;;5049428;28;20973;-74
2022/03/01 02:14:44;;;;;;;8.03;4.63;;;2.10;99.90;;;;;;5049124;28;20465;-73
2022/03/01 02:17:13;;;;;;;8.50;3.90;;;2.30;99.90;;;;;;5049626;28;20825;-74
2022/03/01 02:19:49;;;;;;;6.23;4.40;;;2.20;99.90;;;;;;5050396;28;20581;-74
2022/03/01 02:22:18;;;;;;;10.90;6.03;;;2.30;99.90;;;;;;5049763;28;20531;-74
2022/03/01 02:24:46;;;;;;;6.00;4.73;;;2.30;99.90;;;;;;5049200;28;20458;-73
2022/03/01 02:27:13;;;;;;;6.77;4.07;;;2.30;99.90;;;;;;5049495;28;20465;-73
2022/03/01 02:29:40;;;;;;;8.10;5.17;;;2.40;99.90;;;;;;5049531;28;20505;-74
2022/03/01 02:32:09;;;;;;;8.17;4.30;;;2.40;99.90;;;;;;5048803;28;20489;-74
2022/03/01 02:34:37;;;;;;;6.43;3.80;;;2.40;99.90;;;;;;5048742;28;20449;-73
2022/03/01 02:37:05;;;;;;;7.23;4.50;;;2.50;99.90;;;;;;5049259;28;20454;-73
2022/03/01 02:39:34;;;;;;;6.60;4.20;;;2.50;99.90;;;;;;5049108;28;20994;-73
2022/03/01 02:42:01;;;;;;;6.43;4.13;;;2.50;99.90;;;;;;5049111;28;20453;-73
2022/03/01 02:44:28;;;;;;;9.70;5.20;;;2.40;99.90;;;;;;5049010;28;20462;-73
2022/03/01 02:46:56;;;;;;;5.30;3.60;;;2.20;99.90;;;;;;5049109;28;20457;-73
2022/03/01 02:49:23;;;;;;;6.60;4.40;;;2.00;99.90;;;;;;5048771;28;20445;-73
2022/03/01 02:51:50;;;;;;;10.67;5.10;;;2.00;99.90;;;;;;5049071;28;20461;-74
2022/03/01 02:54:17;;;;;;;7.00;4.50;;;2.00;99.90;;;;;;5049254;28;20783;-73
2022/03/01 02:56:46;;;;;;;7.20;4.87;;;1.80;99.90;;;;;;5048963;28;20793;-74
2022/03/01 02:59:13;;;;;;;7.90;4.80;;;1.90;99.90;;;;;;5049051;28;20477;-74
2022/03/01 03:01:40;;;;;;;8.33;4.30;;;1.80;99.90;;;;;;5048574;28;20462;-74
2022/03/01 03:04:08;;;;;;;9.00;4.63;;;1.90;99.90;;;;;;5049152;28;20454;-74
2022/03/01 03:06:35;;;;;;;6.60;3.73;;;2.00;99.90;;;;;;5052231;28;21064;-74
2022/03/01 03:09:02;;;;;;;7.97;4.50;;;2.00;99.90;;;;;;5052592;28;20454;-73
2022/03/01 03:11:30;;;;;;;7.40;3.97;;;1.90;99.90;;;;;;5052516;28;20458;-74
2022/03/01 03:13:58;;;;;;;4.77;3.47;;;1.90;99.90;;;;;;5052422;28;20449;-73
2022/03/01 03:16:27;;;;;;;5.87;3.67;;;2.10;99.90;;;;;;5051912;28;20480;-74
2022/03/01 03:18:54;;;;;;;6.83;3.67;;;2.10;99.90;;;;;;5052052;28;20461;-74
2022/03/01 03:21:21;;;;;;;6.40;3.90;;;2.20;99.90;;;;;;5052355;28;21034;-74
2022/03/01 03:23:48;;;;;;;5.60;3.30;;;2.20;99.90;;;;;;5052541;28;20823;-74
2022/03/01 03:26:15;;;;;;;7.43;3.27;;;2.20;99.90;;;;;;5052183;28;20476;-73
2022/03/01 03:28:42;;;;;;;5.90;3.30;;;2.20;99.90;;;;;;5052248;28;20964;-73
2022/03/01 03:31:12;;;;;;;5.87;3.40;;;2.30;99.90;;;;;;5051829;28;20465;-74
2022/03/01 03:33:39;;;;;;;7.27;4.07;;;2.20;99.90;;;;;;5052220;28;20445;-73
2022/03/01 03:36:07;;;;;;;6.70;4.17;;;2.20;99.90;;;;;;5051792;28;20481;-73
2022/03/01 03:38:34;;;;;;;6.63;4.23;;;2.20;99.90;;;;;;5052061;28;20770;-74
2022/03/01 03:41:01;;;;;;;7.23;4.73;;;2.30;99.90;;;;;;5051867;28;21009;-73
2022/03/01 03:43:28;;;;;;;8.73;5.07;;;2.30;99.90;;;;;;5051558;28;20453;-73
2022/03/01 03:45:56;;;;;;;10.33;6.20;;;2.30;99.90;;;;;;5051613;28;20473;-73
2022/03/01 03:48:24;;;;;;;9.00;5.60;;;2.40;99.90;;;;;;5051704;28;20458;-73
2022/03/01 03:50:51;;;;;;;7.50;5.30;;;2.40;99.90;;;;;;5051877;28;20445;-73
2022/03/01 03:53:19;;;;;;;7.77;5.03;;;2.50;99.90;;;;;;5051908;28;20450;-73
2022/03/01 03:55:46;;;;;;;8.30;5.50;;;2.50;99.90;;;;;;5051801;28;20493;-73
2022/03/01 03:58:13;;;;;;;8.43;4.80;;;2.60;99.90;;;;;;5051683;28;20470;-74
2022/03/01 04:00:40;;;;;;;8.43;4.60;;;2.60;99.90;;;;;;5051362;28;20500;-73
2022/03/01 04:03:07;;;;;;;15.43;5.17;;;2.60;99.90;;;;;;5051139;28;20453;-74
2022/03/01 04:05:36;;;;;;;7.33;4.77;;;2.70;99.90;;;;;;5051480;28;20822;-74
2022/03/01 04:08:04;;;;;;;11.00;4.43;;;2.70;99.90;;;;;;5051573;28;20454;-74
2022/03/01 04:10:32;;;;;;;9.20;4.93;;;2.70;99.90;;;;;;5051428;28;20808;-74
2022/03/01 04:12:59;;;;;;;8.30;5.10;;;2.70;99.90;;;;;;5051133;28;20458;-74
2022/03/01 04:15:26;;;;;;;8.40;5.83;;;2.50;99.90;;;;;;5050834;28;20519;-74
2022/03/01 04:17:53;;;;;;;7.13;4.67;;;2.40;99.90;;;;;;5051221;28;20460;-74
2022/03/01 04:20:21;;;;;;;7.73;4.70;;;2.50;99.90;;;;;;5051128;28;20492;-74
2022/03/01 04:22:50;;;;;;;7.27;4.53;;;2.60;99.90;;;;;;5051246;28;20492;-74
2022/03/01 04:25:17;;;;;;;7.87;5.30;;;2.60;99.90;;;;;;5051007;28;20490;-74
2022/03/01 04:27:44;;;;;;;8.17;5.33;;;2.50;99.90;;;;;;5050894;28;20457;-74
2022/03/01 04:30:12;;;;;;;8.73;4.90;;;2.50;99.90;;;;;;5050883;28;20454;-74
2022/03/01 04:32:40;;;;;;;7.40;4.53;;;2.30;99.90;;;;;;5050445;28;20498;-74
2022/03/01 04:35:09;;;;;;;6.33;3.87;;;2.40;99.90;;;;;;5050938;28;20466;-74
2022/03/01 04:37:36;;;;;;;6.37;4.40;;;2.40;99.90;;;;;;5050867;28;20454;-73
2022/03/01 04:40:06;;;;;;;8.63;4.37;;;2.40;99.90;;;;;;5050760;28;20851;-74
2022/03/01 04:42:34;;;;;;;7.00;4.30;;;2.40;99.90;;;;;;5050593;28;20806;-74
2022/03/01 04:45:02;;;;;;;8.10;4.83;;;2.50;99.90;;;;;;5050519;28;20530;-73
2022/03/01 04:47:30;;;;;;;7.20;4.43;;;2.50;99.90;;;;;;5050104;28;21025;-73
2022/03/01 04:49:58;;;;;;;8.70;4.80;;;2.50;99.90;;;;;;5050535;28;20536;-73
2022/03/01 04:52:25;;;;;;;11.33;7.20;;;2.40;99.90;;;;;;5050352;28;20457;-72
2022/03/01 04:54:52;;;;;;;12.77;8.40;;;2.40;99.90;;;;;;5050288;28;20516;-75
2022/03/01 04:57:21;;;;;;;14.20;8.30;;;2.40;99.90;;;;;;5050399;28;20962;-70
2022/03/01 04:59:48;;;;;;;19.77;10.87;;;2.50;99.90;;;;;;5050123;28;20454;-69
2022/03/01 05:02:15;;;;;;;15.07;8.70;;;2.40;99.90;;;;;;5050199;28;20480;-74
2022/03/01 05:04:42;;;;;;;14.13;9.10;;;2.30;99.90;;;;;;5050201;28;20496;-70
2022/03/01 05:07:09;;;;;;;20.13;10.50;;;2.30;99.90;;;;;;5050284;28;20805;-69
2022/03/01 05:09:36;;;;;;;14.27;8.80;;;2.10;99.90;;;;;;5050288;28;20551;-70
2022/03/01 05:12:04;;;;;;;13.00;9.33;;;2.00;99.90;;;;;;5050276;28;20460;-72
2022/03/01 05:14:33;;;;;;;10.90;8.43;;;2.00;99.90;;;;;;5050187;28;20450;-72
2022/03/01 05:17:00;;;;;;;14.00;8.50;;;1.90;99.90;;;;;;5049936;28;20457;-71
2022/03/01 05:19:27;;;;;;;12.77;9.00;;;2.00;99.90;;;;;;5049693;28;20454;-73
2022/03/01 05:21:55;;;;;;;12.43;8.03;;;2.00;99.90;;;;;;5049634;28;21001;-71
2022/03/01 05:24:22;;;;;;;11.23;8.23;;;1.90;99.90;;;;;;5050225;28;20795;-71
2022/03/01 05:26:50;;;;;;;12.37;7.80;;;1.90;99.90;;;;;;5049056;28;20480;-70
2022/03/01 05:29:17;;;;;;;10.90;7.80;;;1.90;99.90;;;;;;5050052;28;20457;-68
2022/03/01 05:31:46;;;;;;;13.57;8.63;;;2.00;99.90;;;;;;5049633;28;20492;-70
2022/03/01 05:34:13;;;;;;;13.20;8.07;;;1.90;99.90;;;;;;5049977;28;20454;-74
2022/03/01 05:36:40;;;;;;;11.73;7.70;;;2.00;99.90;;;;;;5049877;28;20508;-72
2022/03/01 05:39:07;;;;;;;11.63;7.40;;;1.90;99.90;;;;;;5050389;28;20458;-77
2022/03/01 05:41:34;;;;;;;13.90;8.17;;;1.90;99.90;;;;;;5049857;28;20500;-81
2022/03/01 05:44:02;;;;;;;11.53;7.90;;;1.80;99.90;;;;;;5050332;28;20458;-85
2022/03/01 05:46:29;;;;;;;10.50;6.77;;;1.80;99.90;;;;;;5050755;28;20982;-71
2022/03/01 05:48:57;;;;;;;11.00;7.10;;;2.00;99.90;;;;;;5049767;28;20464;-77
2022/03/01 05:51:24;;;;;;;11.27;7.30;;;2.10;99.90;;;;;;5049863;28;20465;-81
2022/03/01 05:53:53;;;;;;;12.07;7.80;;;2.10;99.90;;;;;;5049680;28;20533;-76
2022/03/01 05:56:20;;;;;;;10.73;6.23;;;2.10;99.90;;;;;;5049615;28;20481;-72
2022/03/01 05:58:47;;;;;;;9.30;7.20;;;2.00;99.90;;;;;;5049740;28;20469;-83
2022/03/01 06:01:14;;;;;;;13.63;8.00;;;2.00;99.90;;;;;;5049998;28;20490;-74
2022/03/01 06:03:41;;;;;;;10.97;8.80;;;2.10;99.90;;;;;;5049628;28;20810;-76
2022/03/01 06:06:10;;;;;;;12.90;7.17;;;2.00;99.90;;;;;;5049714;28;20493;-76
2022/03/01 06:08:37;;;;;;;10.00;6.30;;;2.00;99.90;;;;;;5049137;28;20454;-77
2022/03/01 06:11:04;;;;;;;11.13;6.67;;;1.90;99.90;;;;;;5049593;28;20461;-77
2022/03/01 06:13:31;;;;;;;8.23;5.60;;;1.90;99.90;;;;;;5049614;28;20456;-76
2022/03/01 06:16:00;;;;;;;10.37;6.73;;;2.00;99.90;;;;;;5049540;28;20548;-76
2022/03/01 06:18:28;;;;;;;9.07;5.80;;;2.00;99.90;;;;;;5049460;28;20457;-78
2022/03/01 06:20:55;;;;;;;9.97;6.10;;;2.00;99.90;;;;;;5049737;28;20490;-75
2022/03/01 06:23:24;;;;;;;9.97;5.93;;;2.20;99.90;;;;;;5049609;28;20802;-77
2022/03/01 06:25:51;;;;;;;8.70;5.70;;;2.40;99.90;;;;;;5049572;28;20473;-76
2022/03/01 06:28:18;;;;;;;9.60;5.20;;;2.50;99.90;;;;;;5048844;28;20449;-75
2022/03/01 06:30:46;;;;;;;10.30;5.80;;;2.40;99.90;;;;;;5049464;28;20477;-74
2022/03/01 06:33:13;;;;;;;9.37;5.60;;;2.40;99.90;;;;;;5049203;28;20490;-77
2022/03/01 06:35:40;;;;;;;10.10;7.00;;;2.50;99.90;;;;;;5049148;28;20958;-76
2022/03/01 06:38:07;;;;;;;8.67;6.83;;;2.60;99.90;;;;;;5049538;28;20481;-77
2022/03/01 06:40:36;;;;;;;9.80;6.93;;;2.70;99.90;;;;;;5053254;28;20564;-77
2022/03/01 06:43:03;;;;;;;10.87;5.90;;;2.90;99.90;;;;;;5052759;28;20810;-76
2022/03/01 06:45:32;;;;;;;10.40;6.00;;;3.00;99.90;;;;;;5052271;28;20984;-76
2022/03/01 06:47:59;;;;;;;8.83;5.70;;;3.10;99.90;;;;;;5052672;28;20450;-76
2022/03/01 06:50:27;;;;;;;11.73;6.53;;;3.20;99.90;;;;;;5052770;28;20472;-76
2022/03/01 06:52:54;;;;;;;9.93;6.47;;;3.40;99.90;;;;;;5052119;28;20992;-77
2022/03/01 06:55:23;;;;;;;10.73;6.30;;;3.70;99.90;;;;;;5052304;28;21021;-76
2022/03/01 06:57:53;;;;;;;8.40;6.07;;;3.70;99.90;;;;;;5052703;28;20468;-77
2022/03/01 07:00:20;;;;;;;8.30;6.20;;;3.90;99.90;;;;;;5052741;28;20454;-75
2022/03/01 07:02:47;;;;;;;10.57;6.43;;;4.20;99.90;;;;;;5052778;28;20461;-76
2022/03/01 07:05:16;;;;;;;9.50;6.30;;;4.40;99.90;;;;;;5052784;28;20500;-75
2022/03/01 07:07:43;;;;;;;8.80;5.70;;;4.50;99.90;;;;;;5052678;28;20450;-76
2022/03/01 07:10:13;;;;;;;9.20;5.87;;;4.50;99.90;;;;;;5052406;28;20456;-75
2022/03/01 07:12:41;;;;;;;9.67;5.87;;;4.60;99.90;;;;;;5052133;28;20911;-76
2022/03/01 07:15:11;;;;;;;7.77;5.20;;;4.80;99.90;;;;;;5052200;28;20477;-75
2022/03/01 07:17:38;;;;;;;9.30;6.23;;;5.00;99.90;;;;;;5052561;28;20457;-75
2022/03/01 07:20:08;;;;;;;10.13;5.70;;;5.20;99.90;;;;;;5052274;28;20810;-76
2022/03/01 07:22:36;;;;;;;8.13;5.70;;;5.40;99.90;;;;;;5052225;28;20541;-74
2022/03/01 07:25:03;;;;;;;6.50;4.50;;;5.60;99.90;;;;;;5051785;28;20477;-75
2022/03/01 07:27:30;;;;;;;7.30;5.20;;;5.80;99.90;;;;;;5052703;28;20834;-75
2022/03/01 07:29:58;;;;;;;8.30;5.50;;;6.00;99.90;;;;;;5052224;28;20934;-75
2022/03/01 07:32:27;;;;;;;10.87;6.00;;;5.90;99.90;;;;;;5051876;28;20482;-76
2022/03/01 07:34:54;;;;;;;8.33;5.30;;;6.00;99.90;;;;;;5051457;28;20973;-75
2022/03/01 07:37:21;;;;;;;7.73;5.00;;;6.10;99.90;;;;;;5052166;28;20454;-76
2022/03/01 07:39:48;;;;;;;9.13;4.63;;;6.10;99.90;;;;;;5051930;28;20457;-75
2022/03/01 07:42:15;;;;;;;6.50;4.20;;;5.80;99.90;;;;;;5051869;28;20490;-74
2022/03/01 07:44:42;;;;;;;5.93;4.10;;;5.70;99.90;;;;;;5051737;28;20476;-74
2022/03/01 07:47:09;;;;;;;6.10;4.40;;;5.60;99.90;;;;;;5051692;28;20471;-73
2022/03/01 07:49:38;;;;;;;8.20;4.97;;;5.60;99.90;;;;;;5050541;28;20979;-74
2022/03/01 07:52:05;;;;;;;7.47;4.73;;;5.60;99.90;;;;;;5051224;28;20450;-75
2022/03/01 07:54:32;;;;;;;9.80;5.10;;;5.80;99.90;;;;;;5051413;28;20481;-74
2022/03/01 07:56:59;;;;;;;7.83;4.83;;;6.10;99.90;;;;;;5051368;28;20453;-74
2022/03/01 07:59:26;;;;;;;8.30;5.13;;;6.40;99.90;;;;;;5051381;28;21030;-75
2022/03/01 08:01:54;;;;;;;8.03;5.20;;;6.50;99.90;;;;;;5050937;28;20492;-74
2022/03/01 08:04:21;;;;;;;7.53;4.63;;;6.70;99.90;;;;;;5051104;28;20474;-74
2022/03/01 08:06:49;;;;;;;7.23;5.23;;;6.80;99.90;;;;;;5050938;28;20461;-76
2022/03/01 08:09:16;;;;;;;7.33;4.70;;;6.80;99.60;;;;;;5050990;28;20456;-73
2022/03/01 08:11:44;;;;;;;8.70;5.53;;;7.00;99.60;;;;;;5051198;28;20446;-73
2022/03/01 08:14:11;;;;;;;8.47;5.80;;;7.10;99.60;;;;;;5050850;28;20466;-74
2022/03/01 08:16:38;;;;;;;7.87;5.37;;;7.30;99.30;;;;;;5050637;28;20454;-76
2022/03/01 08:19:05;;;;;;;9.00;5.80;;;7.50;99.30;;;;;;5050635;28;20457;-75
2022/03/01 08:21:32;;;;;;;8.17;5.20;;;7.60;98.00;;;;;;5050472;28;20997;-75
2022/03/01 08:24:01;;;;;;;10.00;6.40;;;7.80;98.60;;;;;;5050823;28;20473;-75
2022/03/01 08:26:28;;;;;;;8.87;4.97;;;7.60;96.60;;;;;;5050962;28;20457;-77
2022/03/01 08:28:55;;;;;;;8.17;5.83;;;7.60;97.00;;;;;;5051232;28;20461;-77
2022/03/01 08:31:22;;;;;;;7.43;4.80;;;7.60;96.90;;;;;;5049974;28;20493;-74
2022/03/01 08:33:49;;;;;;;7.70;5.77;;;7.80;96.70;;;;;;5050896;28;20456;-73
2022/03/01 08:36:16;;;;;;;9.27;5.73;;;7.80;97.20;;;;;;5050888;28;20797;-75
2022/03/01 08:38:43;;;;;;;10.50;6.03;;;8.10;96.30;;;;;;5050946;28;20458;-78
2022/03/01 08:41:12;;;;;;;7.37;5.17;;;7.80;95.10;;;;;;5050596;28;20488;-76
2022/03/01 08:43:39;;;;;;;6.53;4.30;;;8.00;96.10;;;;;;5050374;28;20450;-74
2022/03/01 08:46:10;;;;;;;7.30;4.83;;;8.20;94.90;;;;;;5050056;28;20930;-74
2022/03/01 08:48:37;;;;;;;6.47;4.73;;;8.20;94.70;;;;;;5050180;28;20464;-75
2022/03/01 08:51:04;;;;;;;7.80;4.80;;;8.30;94.60;;;;;;5050193;28;20450;-75
2022/03/01 08:53:32;;;;;;;9.47;5.27;;;8.50;94.20;;;;;;5050396;28;20449;-75
2022/03/01 08:55:59;;;;;;;8.27;5.00;;;8.70;93.60;;;;;;5050326;28;20457;-74
2022/03/01 08:58:28;;;;;;;7.87;4.80;;;8.70;92.40;;;;;;5049744;28;20946;-75
2022/03/01 09:00:55;;;;;;;7.50;4.97;;;8.70;92.60;;;;;;5049783;28;20477;-75
2022/03/01 09:03:23;;;;;;;8.40;5.30;;;8.60;92.90;;;;;;5048850;28;20454;-76
2022/03/01 09:05:50;;;;;;;6.50;4.77;;;8.60;93.90;;;;;;5049781;28;21032;-78
2022/03/01 09:08:17;;;;;;;5.77;4.03;;;8.80;92.70;;;;;;5049942;28;20552;-74
2022/03/01 09:10:45;;;;;;;6.60;4.60;;;9.10;91.80;;;;;;5049356;28;20907;-75
2022/03/01 09:13:12;;;;;;;6.53;4.40;;;9.20;91.00;;;;;;5049648;28;20442;-75
2022/03/01 09:15:40;;;;;;;10.20;5.60;;;9.10;90.40;;;;;;5049647;28;20485;-75
2022/03/01 09:18:08;;;;;;;10.33;5.67;;;9.10;88.50;;;;;;5049777;28;20454;-75
2022/03/01 09:20:35;;;;;;;7.30;5.00;;;9.00;91.20;;;;;;5049401;28;20549;-75
2022/03/01 09:23:03;;;;;;;9.90;5.40;;;9.10;92.50;;;;;;5049667;28;20850;-75
2022/03/01 09:25:30;;;;;;;9.00;6.07;;;9.20;92.30;;;;;;5049694;28;20457;-77
2022/03/01 09:27:58;;;;;;;9.57;6.00;;;9.40;91.90;;;;;;5049944;28;20461;-74
2022/03/01 09:30:25;;;;;;;7.90;5.40;;;9.70;90.80;;;;;;5049165;28;20458;-76
2022/03/01 09:32:53;;;;;;;10.10;6.57;;;9.40;87.70;;;;;;5049313;28;20496;-75
2022/03/01 09:35:21;;;;;;;7.50;5.33;;;8.30;88.30;;;;;;5049561;28;20450;-76
2022/03/01 09:37:48;;;;;;;8.57;5.27;;;7.90;91.10;;;;;;5049487;28;20515;-76
2022/03/01 09:40:15;;;;;;;8.30;5.50;;;7.80;91.50;;;;;;5049341;28;20946;-75
2022/03/01 09:42:43;;;;;;;6.70;4.60;;;7.90;92.10;;;;;;5049365;28;20991;-75
2022/03/01 09:45:13;;;;;;;10.13;4.90;;;7.90;91.30;;;;;;5049318;28;20469;-77
2022/03/01 09:47:41;;;;;;;8.17;5.33;;;8.10;92.20;;;;;;5049374;28;20449;-75
2022/03/01 09:50:12;;;;;;;8.80;5.30;;;7.90;90.40;;;;;;5049391;28;20519;-75
2022/03/01 09:52:40;;;;;;;12.13;5.63;;;7.70;91.80;;;;;;5049231;28;20449;-74
2022/03/01 09:55:08;;;;;;;8.23;5.90;;;7.70;92.00;;;;;;5049123;28;20508;-76
2022/03/01 09:57:36;;;;;;;8.80;6.20;;;7.70;93.00;;;;;;5049286;28;20470;-75
2022/03/01 10:00:04;;;;;;;7.80;5.77;;;7.90;93.90;;;;;;5049704;28;20883;-76
2022/03/01 10:02:35;;;;;;;8.33;5.27;;;7.90;93.50;;;;;;5049348;28;20839;-74
2022/03/01 10:05:02;;;;;;;9.53;5.83;;;7.60;91.30;;;;;;5048740;28;20497;-74
2022/03/01 10:07:32;;;;;;;7.30;5.03;;;7.10;91.80;;;;;;5049094;28;20573;-75
2022/03/01 10:10:07;;;;;;;10.03;6.57;;;6.90;91.20;;;;;;5049377;28;20778;-76
2022/03/01 10:12:34;;;;;;;7.47;4.93;;;6.80;92.10;;;;;;5049106;28;20446;-74
2022/03/01 10:15:06;;;;;;;8.87;5.87;;;6.50;92.10;;;;;;5052987;28;20462;-75
2022/03/01 10:17:37;;;;;;;8.53;5.83;;;6.40;92.60;;;;;;5053151;28;20537;-74
2022/03/01 10:20:07;;;;;;;11.03;7.23;;;6.40;92.60;;;;;;5053077;28;20460;-74
2022/03/01 10:22:38;;;;;;;8.40;5.43;;;6.50;94.10;;;;;;5053254;28;20498;-75
2022/03/01 10:25:08;;;;;;;8.70;5.03;;;6.60;97.30;;;;;;5053170;28;20473;-75
2022/03/01 10:27:36;;;;;;;8.70;5.93;;;6.70;96.80;;;;;;5053308;28;20892;-74
2022/03/01 10:30:04;;;;;;;11.53;5.57;;;6.90;97.40;;;;;;5052595;28;20529;-74
2022/03/01 10:32:32;;;;;;;7.83;5.50;;;7.00;94.50;;;;;;5052636;28;20565;-77
2022/03/01 10:35:04;;;;;;;8.57;6.30;;;7.10;94.50;;;;;;5052492;28;20477;-74
2022/03/01 10:37:33;;;;;;;8.90;6.27;;;7.30;95.20;;;;;;5052794;28;20461;-77
2022/03/01 10:40:16;;;;;;;10.73;7.00;;;7.30;96.70;;;;;;5052799;28;20464;-74
2022/03/01 10:42:44;;;;;;;12.40;7.60;;;7.40;96.90;;;;;;5052613;28;20571;-75
2022/03/01 10:45:12;;;;;;;10.43;6.90;;;7.30;95.90;;;;;;5052720;28;20473;-76
2022/03/01 10:47:40;;;;;;;9.83;5.70;;;7.40;94.60;;;;;;5053057;28;20458;-75
2022/03/01 10:50:09;;;;;;;9.93;7.30;;;7.40;93.20;;;;;;5051091;28;20458;-76
2022/03/01 10:52:39;;;;;;;14.23;7.97;;;7.60;94.30;;;;;;5052822;28;20464;-76
2022/03/01 10:55:07;;;;;;;11.57;7.07;;;7.70;96.00;;;;;;5052296;28;20473;-75
2022/03/01 10:57:35;;;;;;;10.13;6.97;;;7.90;96.20;;;;;;5052274;28;20454;-75
2022/03/01 11:00:03;;;;;;;7.50;5.50;;;8.10;95.80;;;;;;5052550;28;20457;-75
2022/03/01 11:02:30;;;;;;;9.00;5.60;;;8.30;94.50;;;;;;5051957;28;20486;-76
2022/03/01 11:04:57;;;;;;;21.07;6.17;;;8.40;95.00;;;;;;5052332;28;20477;-73
2022/03/01 11:07:29;;;;;;;18.80;7.47;;;8.40;93.70;;;;;;5051986;28;20464;-75
2022/03/01 11:09:59;;;;;;;10.07;7.07;;;8.40;93.00;;;;;;5052088;28;20457;-75
2022/03/01 11:12:27;;;;;;;13.43;7.50;;;8.50;91.60;;;;;;5052055;28;20580;-74
2022/03/01 11:15:18;;;;;;;11.57;7.20;;;8.40;91.90;;;;;;5052169;28;20481;-75
2022/03/01 11:17:56;;;;;;;9.50;6.30;;;8.20;92.50;;;;;;5052211;28;20487;-75
2022/03/01 11:20:30;;;;;;;10.10;6.20;;;8.20;92.30;;;;;;5051932;28;20450;-75
2022/03/01 11:23:00;;;;;;;8.13;6.07;;;8.10;92.60;;;;;;5052105;28;20614;-75
2022/03/01 11:25:29;;;;;;;9.43;6.57;;;8.00;93.10;;;;;;5050872;28;20478;-76
2022/03/01 11:28:02;;;;;;;11.40;5.90;;;7.90;93.40;;;;;;5052026;28;20446;-76
2022/03/01 11:30:34;;;;;;;8.90;6.60;;;7.70;93.90;;;;;;5051672;28;20457;-75
2022/03/01 11:33:02;;;;;;;13.40;7.07;;;7.80;93.20;;;;;;5051419;28;20500;-76
2022/03/01 11:35:30;;;;;;;9.00;6.20;;;7.80;93.90;;;;;;5051612;28;20477;-74
2022/03/01 11:38:03;;;;;;;8.27;5.50;;;7.70;93.20;;;;;;5051349;28;20462;-75
2022/03/01 11:40:32;;;;;;;10.87;5.87;;;7.70;93.60;;;;;;5051662;28;20529;-74
2022/03/01 11:43:08;;;;;;;8.70;6.43;;;7.70;94.60;;;;;;5051321;28;20908;-76
2022/03/01 11:45:40;;;;;;;10.40;6.47;;;7.80;94.10;;;;;;5051480;28;20474;-76
2022/03/01 11:48:14;;;;;;;9.60;6.03;;;7.70;93.50;;;;;;5051806;28;20961;-76
2022/03/01 11:50:45;;;;;;;11.70;6.07;;;7.60;93.20;;;;;;5051494;28;20458;-76
2022/03/01 11:53:15;;;;;;;8.07;5.73;;;7.70;92.90;;;;;;5051611;28;20454;-74
2022/03/01 11:55:45;;;;;;;9.40;6.50;;;7.70;92.70;;;;;;5051067;28;20478;-75
2022/03/01 11:58:14;;;;;;;11.00;6.50;;;7.50;94.10;;;;;;5051154;28;20450;-76
2022/03/01 12:00:43;;;;;;;10.63;6.30;;;7.50;94.20;;;;;;5051345;28;20457;-75
2022/03/01 12:03:11;;;;;;;10.50;6.27;;;7.60;93.60;;;;;;5051351;28;20485;-75
2022/03/01 12:05:40;;;;;;;8.00;4.93;;;7.60;93.80;;;;;;5051350;28;20480;-73
2022/03/01 12:08:09;;;;;;;10.27;6.70;;;7.50;93.00;;;;;;5051336;28;20805;-75
2022/03/01 12:10:38;;;;;;;9.40;6.17;;;7.40;93.00;;;;;;5050870;28;20937;-75
2022/03/01 12:13:07;;;;;;;11.93;5.67;;;7.40;93.00;;;;;;5051226;28;20591;-76
2022/03/01 12:15:35;;;;;;;10.47;6.37;;;7.30;93.70;;;;;;5051313;28;20587;-75
2022/03/01 12:18:15;;;;;;;11.70;6.60;;;7.30;93.70;;;;;;5051080;28;20457;-78
2022/03/01 12:20:44;;;;;;;9.70;5.93;;;7.30;93.50;;;;;;5050855;28;20468;-77
2022/03/01 12:23:25;;;;;;;9.27;6.67;;;7.20;93.70;;;;;;5050544;28;20982;-76
2022/03/01 12:25:52;;;;;;;8.60;6.50;;;7.20;94.50;;;;;;5051413;28;20480;-77
2022/03/01 12:28:22;;;;;;;12.50;7.40;;;7.00;94.60;;;;;;5051919;28;20458;-78
2022/03/01 12:30:50;;;;;;;10.40;7.10;;;7.20;94.20;;;;;;5050434;28;20442;-74
2022/03/01 12:33:19;;;;;;;8.30;6.23;;;7.10;95.30;;;;;;5051187;28;20522;-75
2022/03/01 12:36:03;;;;;;;13.07;7.20;;;7.30;94.30;;;;;;5050888;28;20474;-75
2022/03/01 12:38:31;;;;;;;10.17;7.13;;;7.30;94.00;;;;;;5050755;28;20577;-74
2022/03/01 12:41:08;;;;;;;22.40;7.40;;;7.40;94.10;;;;;;5050819;28;20464;-74
2022/03/01 12:43:35;;;;;;;14.53;7.67;;;7.40;94.60;;;;;;5050435;28;20489;-74
2022/03/01 12:46:04;;;;;;;7.20;5.00;;;7.40;94.60;;;;;;5050405;28;20796;-74
2022/03/01 12:48:43;;;;;;;9.73;5.70;;;7.40;93.90;;;;;;5050485;28;20473;-76
2022/03/01 12:51:10;;;;;;;7.07;4.93;;;7.40;93.50;;;;;;5050546;28;20453;-68
2022/03/01 12:53:37;;;;;;;8.40;5.60;;;7.50;92.30;;;;;;5050486;28;20878;-66
2022/03/01 12:56:05;;;;;;;7.30;5.17;;;7.60;92.10;;;;;;5050625;28;20812;-68
2022/03/01 12:58:32;;;;;;;6.63;4.80;;;7.50;92.90;;;;;;5050152;28;20450;-70